sensor_id;sensor_type;location;lat;lon;timestamp;temperature;humidity
23471;DHT22;11908;50.806;4.424;2022-08-18T00:02:25;19.50;99.90
23471;DHT22;11908;50.806;4.424;2022-08-18T00:04:52;19.50;99.90
23471;DHT22;11908;50.806;4.424;2022-08-18T00:07:29;19.50;99.90
23471;DHT22;11908;50.806;4.424;2022-08-18T00:09:55;19.40;99.90
23471;DHT22;11908;50.806;4.424;2022-08-18T00:12:38;19.40;99.90
23471;DHT22;11908;50.806;4.424;2022-08-18T00:15:06;19.40;99.90
23471;DHT22;11908;50.806;4.424;2022-08-18T00:17:33;19.30;99.90
23471;DHT22;11908;50.806;4.424;2022-08-18T00:20:00;19.40;99.90
23471;DHT22;11908;50.806;4.424;2022-08-18T00:22:26;19.30;99.90
23471;DHT22;11908;50.806;4.424;2022-08-18T00:24:54;19.20;99.90
23471;DHT22;11908;50.806;4.424;2022-08-18T00:27:26;19.20;99.90
23471;DHT22;11908;50.806;4.424;2022-08-18T00:29:53;19.20;99.90
23471;DHT22;11908;50.806;4.424;2022-08-18T00:32:23;19.20;99.90
23471;DHT22;11908;50.806;4.424;2022-08-18T00:34:49;19.20;99.90
23471;DHT22;11908;50.806;4.424;2022-08-18T00:37:15;19.20;99.90
23471;DHT22;11908;50.806;4.424;2022-08-18T00:39:40;19.20;99.90
23471;DHT22;11908;50.806;4.424;2022-08-18T00:42:21;19.20;99.90
23471;DHT22;11908;50.806;4.424;2022-08-18T00:44:47;19.20;99.90
23471;DHT22;11908;50.806;4.424;2022-08-18T00:47:13;19.20;99.90
23471;DHT22;11908;50.806;4.424;2022-08-18T00:49:40;19.20;99.90
23471;DHT22;11908;50.806;4.424;2022-08-18T00:52:08;19.20;99.90
23471;DHT22;11908;50.806;4.424;2022-08-18T00:54:36;19.20;99.90
23471;DHT22;11908;50.806;4.424;2022-08-18T00:57:07;19.20;99.90
23471;DHT22;11908;50.806;4.424;2022-08-18T00:59:51;19.20;99.90
23471;DHT22;11908;50.806;4.424;2022-08-18T01:02:44;19.10;99.90
23471;DHT22;11908;50.806;4.424;2022-08-18T01:05:20;19.10;99.90
23471;DHT22;11908;50.806;4.424;2022-08-18T01:07:48;19.10;99.90
23471;DHT22;11908;50.806;4.424;2022-08-18T01:10:16;19.10;99.90
23471;DHT22;11908;50.806;4.424;2022-08-18T01:12:51;19.10;99.90
23471;DHT22;11908;50.806;4.424;2022-08-18T01:15:19;19.20;99.90
23471;DHT22;11908;50.806;4.424;2022-08-18T01:17:46;19.20;99.90
23471;DHT22;11908;50.806;4.424;2022-08-18T01:23:45;19.40;99.90
23471;DHT22;11908;50.806;4.424;2022-08-18T01:26:13;19.40;99.90
23471;DHT22;11908;50.806;4.424;2022-08-18T01:28:42;19.50;99.90
23471;DHT22;11908;50.806;4.424;2022-08-18T01:31:10;19.60;99.90
23471;DHT22;11908;50.806;4.424;2022-08-18T01:33:42;19.60;99.90
23471;DHT22;11908;50.806;4.424;2022-08-18T01:36:18;19.70;99.90
23471;DHT22;11908;50.806;4.424;2022-08-18T01:38:48;19.70;99.90
23471;DHT22;11908;50.806;4.424;2022-08-18T01:41:16;19.50;99.90
23471;DHT22;11908;50.806;4.424;2022-08-18T01:43:41;19.60;99.90
23471;DHT22;11908;50.806;4.424;2022-08-18T01:46:07;19.50;99.90
23471;DHT22;11908;50.806;4.424;2022-08-18T01:48:35;19.60;99.90
23471;DHT22;11908;50.806;4.424;2022-08-18T01:51:08;19.70;99.90
23471;DHT22;11908;50.806;4.424;2022-08-18T01:53:34;19.80;99.90
23471;DHT22;11908;50.806;4.424;2022-08-18T01:56:00;19.80;99.90
23471;DHT22;11908;50.806;4.424;2022-08-18T01:58:33;19.70;99.90
23471;DHT22;11908;50.806;4.424;2022-08-18T02:01:00;19.70;99.90
23471;DHT22;11908;50.806;4.424;2022-08-18T02:03:37;19.70;99.90
23471;DHT22;11908;50.806;4.424;2022-08-18T02:06:09;19.70;99.90
23471;DHT22;11908;50.806;4.424;2022-08-18T02:08:37;19.80;99.90
23471;DHT22;11908;50.806;4.424;2022-08-18T02:11:03;19.80;99.90
23471;DHT22;11908;50.806;4.424;2022-08-18T02:13:29;19.90;99.90
23471;DHT22;11908;50.806;4.424;2022-08-18T02:15:55;19.90;99.90
23471;DHT22;11908;50.806;4.424;2022-08-18T02:18:27;19.90;99.90
23471;DHT22;11908;50.806;4.424;2022-08-18T02:20:54;19.90;99.90
23471;DHT22;11908;50.806;4.424;2022-08-18T02:23:20;20.00;99.90
23471;DHT22;11908;50.806;4.424;2022-08-18T02:25:46;20.00;99.90
23471;DHT22;11908;50.806;4.424;2022-08-18T02:28:11;20.00;99.90
23471;DHT22;11908;50.806;4.424;2022-08-18T02:30:37;20.00;99.90
23471;DHT22;11908;50.806;4.424;2022-08-18T02:33:05;20.00;99.90
23471;DHT22;11908;50.806;4.424;2022-08-18T02:35:30;20.10;99.90
23471;DHT22;11908;50.806;4.424;2022-08-18T02:38:01;20.00;99.90
23471;DHT22;11908;50.806;4.424;2022-08-18T02:40:27;20.00;99.90
23471;DHT22;11908;50.806;4.424;2022-08-18T02:42:54;20.00;99.90
23471;DHT22;11908;50.806;4.424;2022-08-18T02:45:21;20.00;99.90
23471;DHT22;11908;50.806;4.424;2022-08-18T02:47:53;20.00;99.90
23471;DHT22;11908;50.806;4.424;2022-08-18T02:50:20;20.00;99.90
23471;DHT22;11908;50.806;4.424;2022-08-18T02:52:45;20.00;99.90
23471;DHT22;11908;50.806;4.424;2022-08-18T02:55:11;20.10;99.90
23471;DHT22;11908;50.806;4.424;2022-08-18T02:57:44;20.00;99.90
23471;DHT22;11908;50.806;4.424;2022-08-18T03:00:12;20.00;99.90
23471;DHT22;11908;50.806;4.424;2022-08-18T03:02:39;20.00;99.90
23471;DHT22;11908;50.806;4.424;2022-08-18T03:05:05;20.00;99.90
23471;DHT22;11908;50.806;4.424;2022-08-18T03:07:31;20.10;99.90
23471;DHT22;11908;50.806;4.424;2022-08-18T03:09:57;20.10;99.90
23471;DHT22;11908;50.806;4.424;2022-08-18T03:12:23;20.00;99.90
23471;DHT22;11908;50.806;4.424;2022-08-18T03:14:49;20.00;99.90
23471;DHT22;11908;50.806;4.424;2022-08-18T03:17:15;20.00;99.90
23471;DHT22;11908;50.806;4.424;2022-08-18T03:19:41;20.00;99.90
23471;DHT22;11908;50.806;4.424;2022-08-18T03:22:09;20.00;99.90
23471;DHT22;11908;50.806;4.424;2022-08-18T03:24:35;20.00;99.90
23471;DHT22;11908;50.806;4.424;2022-08-18T03:27:03;20.00;99.90
23471;DHT22;11908;50.806;4.424;2022-08-18T03:29:30;20.00;99.90
23471;DHT22;11908;50.806;4.424;2022-08-18T03:31:56;20.00;99.90
23471;DHT22;11908;50.806;4.424;2022-08-18T03:34:22;20.00;99.90
23471;DHT22;11908;50.806;4.424;2022-08-18T03:36:49;20.00;99.90
23471;DHT22;11908;50.806;4.424;2022-08-18T03:39:16;20.00;99.90
23471;DHT22;11908;50.806;4.424;2022-08-18T03:41:44;20.10;99.90
23471;DHT22;11908;50.806;4.424;2022-08-18T03:44:11;20.20;99.90
23471;DHT22;11908;50.806;4.424;2022-08-18T03:46:40;20.10;99.90
23471;DHT22;11908;50.806;4.424;2022-08-18T03:49:06;20.20;99.90
23471;DHT22;11908;50.806;4.424;2022-08-18T03:51:32;20.20;99.90
23471;DHT22;11908;50.806;4.424;2022-08-18T03:54:00;20.20;99.90
23471;DHT22;11908;50.806;4.424;2022-08-18T03:56:29;20.20;99.90
23471;DHT22;11908;50.806;4.424;2022-08-18T03:58:59;20.30;99.90
23471;DHT22;11908;50.806;4.424;2022-08-18T04:01:28;20.30;99.90
23471;DHT22;11908;50.806;4.424;2022-08-18T04:03:56;20.30;99.90
23471;DHT22;11908;50.806;4.424;2022-08-18T04:06:25;20.30;99.90
23471;DHT22;11908;50.806;4.424;2022-08-18T04:08:53;20.30;99.90
23471;DHT22;11908;50.806;4.424;2022-08-18T04:11:19;20.30;99.90
23471;DHT22;11908;50.806;4.424;2022-08-18T04:13:45;20.40;99.90
23471;DHT22;11908;50.806;4.424;2022-08-18T04:16:11;20.40;99.90
23471;DHT22;11908;50.806;4.424;2022-08-18T04:18:36;20.40;99.90
23471;DHT22;11908;50.806;4.424;2022-08-18T04:21:09;20.40;99.90
23471;DHT22;11908;50.806;4.424;2022-08-18T04:23:36;20.50;99.90
23471;DHT22;11908;50.806;4.424;2022-08-18T04:26:03;20.50;99.90
23471;DHT22;11908;50.806;4.424;2022-08-18T04:28:30;20.50;99.90
23471;DHT22;11908;50.806;4.424;2022-08-18T04:30:56;20.50;99.90
23471;DHT22;11908;50.806;4.424;2022-08-18T04:33:27;20.40;99.90
23471;DHT22;11908;50.806;4.424;2022-08-18T04:35:54;20.40;99.90
23471;DHT22;11908;50.806;4.424;2022-08-18T04:38:20;20.50;99.90
23471;DHT22;11908;50.806;4.424;2022-08-18T04:40:46;20.60;99.90
23471;DHT22;11908;50.806;4.424;2022-08-18T04:43:13;20.60;99.90
23471;DHT22;11908;50.806;4.424;2022-08-18T04:45:46;20.50;99.90
23471;DHT22;11908;50.806;4.424;2022-08-18T04:48:13;20.60;99.90
23471;DHT22;11908;50.806;4.424;2022-08-18T04:50:41;20.50;99.90
23471;DHT22;11908;50.806;4.424;2022-08-18T04:53:07;20.60;99.90
23471;DHT22;11908;50.806;4.424;2022-08-18T04:55:53;20.60;99.90
23471;DHT22;11908;50.806;4.424;2022-08-18T04:58:23;20.60;99.90
23471;DHT22;11908;50.806;4.424;2022-08-18T05:00:57;20.70;99.90
23471;DHT22;11908;50.806;4.424;2022-08-18T05:03:23;20.70;99.90
23471;DHT22;11908;50.806;4.424;2022-08-18T05:05:54;20.70;99.90
23471;DHT22;11908;50.806;4.424;2022-08-18T05:08:20;20.70;99.90
23471;DHT22;11908;50.806;4.424;2022-08-18T05:10:47;20.60;99.90
23471;DHT22;11908;50.806;4.424;2022-08-18T05:13:12;20.60;99.90
23471;DHT22;11908;50.806;4.424;2022-08-18T05:15:42;20.70;99.90
23471;DHT22;11908;50.806;4.424;2022-08-18T05:18:08;20.80;99.90
23471;DHT22;11908;50.806;4.424;2022-08-18T05:20:36;20.80;99.90
23471;DHT22;11908;50.806;4.424;2022-08-18T05:23:02;20.90;99.90
23471;DHT22;11908;50.806;4.424;2022-08-18T05:25:27;21.00;99.90
23471;DHT22;11908;50.806;4.424;2022-08-18T05:27:54;21.00;99.90
23471;DHT22;11908;50.806;4.424;2022-08-18T05:30:20;21.10;99.90
23471;DHT22;11908;50.806;4.424;2022-08-18T05:32:46;21.20;99.90
23471;DHT22;11908;50.806;4.424;2022-08-18T05:35:17;21.20;99.90
23471;DHT22;11908;50.806;4.424;2022-08-18T05:40:30;21.30;99.90
23471;DHT22;11908;50.806;4.424;2022-08-18T05:42:58;21.40;99.90
23471;DHT22;11908;50.806;4.424;2022-08-18T05:45:24;21.50;99.90
23471;DHT22;11908;50.806;4.424;2022-08-18T05:47:50;21.60;99.90
23471;DHT22;11908;50.806;4.424;2022-08-18T05:50:22;21.60;99.90
23471;DHT22;11908;50.806;4.424;2022-08-18T05:58:39;21.90;99.90
23471;DHT22;11908;50.806;4.424;2022-08-18T06:01:12;22.00;99.90
23471;DHT22;11908;50.806;4.424;2022-08-18T06:03:52;22.20;99.90
23471;DHT22;11908;50.806;4.424;2022-08-18T06:06:24;22.20;99.90
23471;DHT22;11908;50.806;4.424;2022-08-18T06:09:09;22.40;99.90
23471;DHT22;11908;50.806;4.424;2022-08-18T06:11:35;22.60;99.90
23471;DHT22;11908;50.806;4.424;2022-08-18T06:14:00;22.60;99.90
23471;DHT22;11908;50.806;4.424;2022-08-18T06:25:05;22.20;99.90
23471;DHT22;11908;50.806;4.424;2022-08-18T06:27:39;22.20;99.90
23471;DHT22;11908;50.806;4.424;2022-08-18T06:30:14;22.30;99.90
23471;DHT22;11908;50.806;4.424;2022-08-18T06:33:11;22.30;99.90
23471;DHT22;11908;50.806;4.424;2022-08-18T06:35:49;22.20;99.90
23471;DHT22;11908;50.806;4.424;2022-08-18T06:46:53;23.10;99.90
23471;DHT22;11908;50.806;4.424;2022-08-18T06:49:46;23.60;99.90
23471;DHT22;11908;50.806;4.424;2022-08-18T06:54:44;23.80;99.90
23471;DHT22;11908;50.806;4.424;2022-08-18T06:57:23;23.20;99.90
23471;DHT22;11908;50.806;4.424;2022-08-18T07:00:03;23.00;99.90
23471;DHT22;11908;50.806;4.424;2022-08-18T07:02:44;23.00;99.90
23471;DHT22;11908;50.806;4.424;2022-08-18T07:05:26;22.90;99.90
23471;DHT22;11908;50.806;4.424;2022-08-18T07:08:46;22.80;99.90
23471;DHT22;11908;50.806;4.424;2022-08-18T07:11:20;22.80;99.90
23471;DHT22;11908;50.806;4.424;2022-08-18T07:13:49;23.10;99.90
23471;DHT22;11908;50.806;4.424;2022-08-18T07:18:52;23.40;99.90
23471;DHT22;11908;50.806;4.424;2022-08-18T07:21:28;23.50;99.90
23471;DHT22;11908;50.806;4.424;2022-08-18T07:24:05;23.60;99.90
23471;DHT22;11908;50.806;4.424;2022-08-18T07:27:01;23.70;99.90
23471;DHT22;11908;50.806;4.424;2022-08-18T07:29:29;23.70;99.90
23471;DHT22;11908;50.806;4.424;2022-08-18T07:31:58;23.70;99.90
23471;DHT22;11908;50.806;4.424;2022-08-18T07:34:35;23.30;99.90
23471;DHT22;11908;50.806;4.424;2022-08-18T07:39:58;23.40;99.90
23471;DHT22;11908;50.806;4.424;2022-08-18T07:42:59;23.60;99.90
23471;DHT22;11908;50.806;4.424;2022-08-18T07:45:36;23.50;99.90
23471;DHT22;11908;50.806;4.424;2022-08-18T07:48:14;23.60;99.90
23471;DHT22;11908;50.806;4.424;2022-08-18T07:56:35;25.60;99.90
23471;DHT22;11908;50.806;4.424;2022-08-18T07:59:10;27.20;99.90
23471;DHT22;11908;50.806;4.424;2022-08-18T08:01:43;27.80;99.90
23471;DHT22;11908;50.806;4.424;2022-08-18T08:10:03;27.20;99.90
23471;DHT22;11908;50.806;4.424;2022-08-18T08:20:31;28.30;99.90
23471;DHT22;11908;50.806;4.424;2022-08-18T08:25:55;29.70;99.90
23471;DHT22;11908;50.806;4.424;2022-08-18T08:31:29;32.50;99.90
23471;DHT22;11908;50.806;4.424;2022-08-18T08:34:21;32.60;99.90
23471;DHT22;11908;50.806;4.424;2022-08-18T08:37:01;33.00;99.90
23471;DHT22;11908;50.806;4.424;2022-08-18T08:39:48;32.70;99.90
23471;DHT22;11908;50.806;4.424;2022-08-18T08:42:22;32.20;99.90
23471;DHT22;11908;50.806;4.424;2022-08-18T08:44:55;33.50;99.90
23471;DHT22;11908;50.806;4.424;2022-08-18T08:49:59;34.00;99.90
23471;DHT22;11908;50.806;4.424;2022-08-18T08:52:34;34.70;99.90
23471;DHT22;11908;50.806;4.424;2022-08-18T08:55:10;35.30;99.90
23471;DHT22;11908;50.806;4.424;2022-08-18T08:57:46;34.70;99.90
23471;DHT22;11908;50.806;4.424;2022-08-18T09:00:13;34.90;99.90
23471;DHT22;11908;50.806;4.424;2022-08-18T09:05:38;36.20;99.30
23471;DHT22;11908;50.806;4.424;2022-08-18T09:12:03;37.80;95.90
23471;DHT22;11908;50.806;4.424;2022-08-18T09:22:52;37.10;93.00
23471;DHT22;11908;50.806;4.424;2022-08-18T09:30:45;33.30;97.40
23471;DHT22;11908;50.806;4.424;2022-08-18T09:38:37;31.80;99.90
23471;DHT22;11908;50.806;4.424;2022-08-18T09:41:34;31.00;99.90
23471;DHT22;11908;50.806;4.424;2022-08-18T09:44:13;30.40;99.90
23471;DHT22;11908;50.806;4.424;2022-08-18T09:52:00;29.90;99.90
23471;DHT22;11908;50.806;4.424;2022-08-18T09:57:28;29.30;99.90
23471;DHT22;11908;50.806;4.424;2022-08-18T10:00:27;29.30;99.90
23471;DHT22;11908;50.806;4.424;2022-08-18T10:10:38;28.80;99.90
23471;DHT22;11908;50.806;4.424;2022-08-18T10:13:24;28.60;99.90
23471;DHT22;11908;50.806;4.424;2022-08-18T10:21:27;27.70;99.90
23471;DHT22;11908;50.806;4.424;2022-08-18T10:23:58;27.30;99.90
23471;DHT22;11908;50.806;4.424;2022-08-18T10:31:31;28.30;99.90
23471;DHT22;11908;50.806;4.424;2022-08-18T10:34:10;29.10;99.90
23471;DHT22;11908;50.806;4.424;2022-08-18T10:36:54;29.70;99.90
23471;DHT22;11908;50.806;4.424;2022-08-18T10:39:22;30.90;99.90
23471;DHT22;11908;50.806;4.424;2022-08-18T10:44:30;33.00;99.90
23471;DHT22;11908;50.806;4.424;2022-08-18T10:46:57;33.30;99.90
23471;DHT22;11908;50.806;4.424;2022-08-18T10:49:26;32.50;99.90
23471;DHT22;11908;50.806;4.424;2022-08-18T10:57:31;31.40;99.90
23471;DHT22;11908;50.806;4.424;2022-08-18T11:00:12;31.30;99.90
23471;DHT22;11908;50.806;4.424;2022-08-18T11:05:22;32.50;99.90
23471;DHT22;11908;50.806;4.424;2022-08-18T11:07:54;32.30;99.90
23471;DHT22;11908;50.806;4.424;2022-08-18T11:10:37;31.80;99.90
23471;DHT22;11908;50.806;4.424;2022-08-18T11:15:54;31.00;99.90
23471;DHT22;11908;50.806;4.424;2022-08-18T11:18:37;30.60;99.90
23471;DHT22;11908;50.806;4.424;2022-08-18T11:26:36;29.80;99.90
23471;DHT22;11908;50.806;4.424;2022-08-18T11:29:24;29.60;99.90
23471;DHT22;11908;50.806;4.424;2022-08-18T11:32:37;29.70;99.90
23471;DHT22;11908;50.806;4.424;2022-08-18T11:43:25;30.30;99.90
23471;DHT22;11908;50.806;4.424;2022-08-18T11:46:21;30.30;99.90
23471;DHT22;11908;50.806;4.424;2022-08-18T11:48:50;30.40;99.90
23471;DHT22;11908;50.806;4.424;2022-08-18T11:51:28;30.00;99.90
23471;DHT22;11908;50.806;4.424;2022-08-18T11:53:57;30.00;99.90
23471;DHT22;11908;50.806;4.424;2022-08-18T11:56:29;29.90;99.90
23471;DHT22;11908;50.806;4.424;2022-08-18T11:59:06;30.20;99.90
23471;DHT22;11908;50.806;4.424;2022-08-18T12:01:39;30.80;99.90
23471;DHT22;11908;50.806;4.424;2022-08-18T12:04:14;31.00;99.90
23471;DHT22;11908;50.806;4.424;2022-08-18T12:12:15;30.60;99.90
23471;DHT22;11908;50.806;4.424;2022-08-18T12:15:03;30.90;99.90
23471;DHT22;11908;50.806;4.424;2022-08-18T12:17:30;31.10;99.90
23471;DHT22;11908;50.806;4.424;2022-08-18T12:19:56;30.80;99.90
23471;DHT22;11908;50.806;4.424;2022-08-18T12:22:30;31.10;99.90
23471;DHT22;11908;50.806;4.424;2022-08-18T12:24:56;31.10;99.90
23471;DHT22;11908;50.806;4.424;2022-08-18T12:27:24;31.70;99.40
23471;DHT22;11908;50.806;4.424;2022-08-18T12:29:52;32.00;99.70
23471;DHT22;11908;50.806;4.424;2022-08-18T12:32:19;31.70;99.10
23471;DHT22;11908;50.806;4.424;2022-08-18T12:34:46;31.60;98.40
23471;DHT22;11908;50.806;4.424;2022-08-18T12:37:15;31.50;98.80
23471;DHT22;11908;50.806;4.424;2022-08-18T12:39:41;31.30;99.60
23471;DHT22;11908;50.806;4.424;2022-08-18T12:42:07;31.30;99.20
23471;DHT22;11908;50.806;4.424;2022-08-18T12:44:33;31.40;99.60
23471;DHT22;11908;50.806;4.424;2022-08-18T12:47:00;31.90;98.70
23471;DHT22;11908;50.806;4.424;2022-08-18T12:49:26;31.90;98.30
23471;DHT22;11908;50.806;4.424;2022-08-18T12:51:52;32.10;98.00
23471;DHT22;11908;50.806;4.424;2022-08-18T12:54:20;32.10;97.00
23471;DHT22;11908;50.806;4.424;2022-08-18T12:56:50;32.00;97.40
23471;DHT22;11908;50.806;4.424;2022-08-18T12:59:16;31.40;97.40
23471;DHT22;11908;50.806;4.424;2022-08-18T13:01:41;31.10;98.10
23471;DHT22;11908;50.806;4.424;2022-08-18T13:04:07;30.60;99.30
23471;DHT22;11908;50.806;4.424;2022-08-18T13:06:36;30.50;99.60
23471;DHT22;11908;50.806;4.424;2022-08-18T13:09:02;30.50;99.90
23471;DHT22;11908;50.806;4.424;2022-08-18T13:11:28;30.40;99.60
23471;DHT22;11908;50.806;4.424;2022-08-18T13:13:54;30.70;99.90
23471;DHT22;11908;50.806;4.424;2022-08-18T13:16:20;30.70;99.90
23471;DHT22;11908;50.806;4.424;2022-08-18T13:18:46;30.70;99.90
23471;DHT22;11908;50.806;4.424;2022-08-18T13:21:15;30.30;99.90
23471;DHT22;11908;50.806;4.424;2022-08-18T13:23:41;30.00;99.90
23471;DHT22;11908;50.806;4.424;2022-08-18T13:26:11;29.60;99.90
23471;DHT22;11908;50.806;4.424;2022-08-18T13:28:37;29.30;99.90
23471;DHT22;11908;50.806;4.424;2022-08-18T13:31:04;29.10;99.90
23471;DHT22;11908;50.806;4.424;2022-08-18T13:33:30;29.20;99.90
23471;DHT22;11908;50.806;4.424;2022-08-18T13:35:57;29.00;99.90
23471;DHT22;11908;50.806;4.424;2022-08-18T13:38:23;28.90;99.90
23471;DHT22;11908;50.806;4.424;2022-08-18T13:40:50;28.80;99.90
23471;DHT22;11908;50.806;4.424;2022-08-18T13:43:20;28.40;99.90
23471;DHT22;11908;50.806;4.424;2022-08-18T13:45:47;28.10;99.90
23471;DHT22;11908;50.806;4.424;2022-08-18T13:48:15;28.10;99.90
23471;DHT22;11908;50.806;4.424;2022-08-18T13:50:42;28.10;99.90
23471;DHT22;11908;50.806;4.424;2022-08-18T13:53:15;28.30;99.90
23471;DHT22;11908;50.806;4.424;2022-08-18T13:55:45;28.50;99.90
23471;DHT22;11908;50.806;4.424;2022-08-18T13:58:11;28.90;99.90
23471;DHT22;11908;50.806;4.424;2022-08-18T14:00:37;29.00;99.90
23471;DHT22;11908;50.806;4.424;2022-08-18T14:03:04;29.10;99.90
23471;DHT22;11908;50.806;4.424;2022-08-18T14:05:31;29.20;99.90
23471;DHT22;11908;50.806;4.424;2022-08-18T14:07:57;29.10;99.90
23471;DHT22;11908;50.806;4.424;2022-08-18T14:10:23;29.10;99.90
23471;DHT22;11908;50.806;4.424;2022-08-18T14:12:55;29.10;99.90
23471;DHT22;11908;50.806;4.424;2022-08-18T14:15:21;29.10;99.90
23471;DHT22;11908;50.806;4.424;2022-08-18T14:17:48;28.80;99.90
23471;DHT22;11908;50.806;4.424;2022-08-18T14:20:14;28.70;99.90
23471;DHT22;11908;50.806;4.424;2022-08-18T14:22:59;28.30;99.90
23471;DHT22;11908;50.806;4.424;2022-08-18T14:25:44;28.10;99.90
23471;DHT22;11908;50.806;4.424;2022-08-18T14:28:32;28.00;99.90
23471;DHT22;11908;50.806;4.424;2022-08-18T14:30:59;28.40;99.90
23471;DHT22;11908;50.806;4.424;2022-08-18T14:33:27;28.60;99.90
23471;DHT22;11908;50.806;4.424;2022-08-18T14:35:53;28.70;99.90
23471;DHT22;11908;50.806;4.424;2022-08-18T14:38:19;28.50;99.90
23471;DHT22;11908;50.806;4.424;2022-08-18T14:40:47;28.60;99.90
23471;DHT22;11908;50.806;4.424;2022-08-18T14:43:15;28.50;99.90
23471;DHT22;11908;50.806;4.424;2022-08-18T14:45:42;28.60;99.90
23471;DHT22;11908;50.806;4.424;2022-08-18T14:48:17;28.80;99.90
23471;DHT22;11908;50.806;4.424;2022-08-18T14:50:46;28.90;99.90
23471;DHT22;11908;50.806;4.424;2022-08-18T14:53:17;29.00;99.90
23471;DHT22;11908;50.806;4.424;2022-08-18T14:55:45;29.00;99.90
23471;DHT22;11908;50.806;4.424;2022-08-18T14:58:11;29.10;99.90
23471;DHT22;11908;50.806;4.424;2022-08-18T15:00:37;29.00;99.90
23471;DHT22;11908;50.806;4.424;2022-08-18T15:03:03;29.00;99.90
23471;DHT22;11908;50.806;4.424;2022-08-18T15:05:31;29.00;99.90
23471;DHT22;11908;50.806;4.424;2022-08-18T15:07:58;29.00;99.90
23471;DHT22;11908;50.806;4.424;2022-08-18T15:10:24;28.80;99.90
23471;DHT22;11908;50.806;4.424;2022-08-18T15:12:50;28.80;99.90
23471;DHT22;11908;50.806;4.424;2022-08-18T15:15:17;28.70;99.90
23471;DHT22;11908;50.806;4.424;2022-08-18T15:17:43;28.50;99.90
23471;DHT22;11908;50.806;4.424;2022-08-18T15:20:09;28.30;99.90
23471;DHT22;11908;50.806;4.424;2022-08-18T15:22:43;28.40;99.90
23471;DHT22;11908;50.806;4.424;2022-08-18T15:25:28;28.50;99.90
23471;DHT22;11908;50.806;4.424;2022-08-18T15:28:18;28.60;99.90
23471;DHT22;11908;50.806;4.424;2022-08-18T15:30:45;28.70;99.90
23471;DHT22;11908;50.806;4.424;2022-08-18T15:33:11;28.50;99.90
23471;DHT22;11908;50.806;4.424;2022-08-18T15:35:40;28.20;99.90
23471;DHT22;11908;50.806;4.424;2022-08-18T15:38:07;28.20;99.90
23471;DHT22;11908;50.806;4.424;2022-08-18T15:40:33;28.00;99.90
23471;DHT22;11908;50.806;4.424;2022-08-18T15:43:00;28.20;99.90
23471;DHT22;11908;50.806;4.424;2022-08-18T15:45:33;28.10;99.90
23471;DHT22;11908;50.806;4.424;2022-08-18T15:48:00;28.00;99.90
23471;DHT22;11908;50.806;4.424;2022-08-18T15:50:26;28.00;99.90
23471;DHT22;11908;50.806;4.424;2022-08-18T15:52:58;28.00;99.90
23471;DHT22;11908;50.806;4.424;2022-08-18T15:55:26;28.10;99.90
23471;DHT22;11908;50.806;4.424;2022-08-18T15:57:55;28.50;99.90
23471;DHT22;11908;50.806;4.424;2022-08-18T16:00:22;28.80;99.90
23471;DHT22;11908;50.806;4.424;2022-08-18T16:02:53;28.70;99.90
23471;DHT22;11908;50.806;4.424;2022-08-18T16:05:22;28.80;99.90
23471;DHT22;11908;50.806;4.424;2022-08-18T16:07:49;28.70;99.90
23471;DHT22;11908;50.806;4.424;2022-08-18T16:10:17;28.80;99.90
23471;DHT22;11908;50.806;4.424;2022-08-18T16:12:44;28.80;99.90
23471;DHT22;11908;50.806;4.424;2022-08-18T16:15:10;28.90;99.90
23471;DHT22;11908;50.806;4.424;2022-08-18T16:17:36;28.90;99.90
23471;DHT22;11908;50.806;4.424;2022-08-18T16:20:03;28.90;99.90
23471;DHT22;11908;50.806;4.424;2022-08-18T16:22:29;29.00;99.90
23471;DHT22;11908;50.806;4.424;2022-08-18T16:24:57;28.90;99.90
23471;DHT22;11908;50.806;4.424;2022-08-18T16:27:23;28.90;99.90
23471;DHT22;11908;50.806;4.424;2022-08-18T16:29:51;28.80;99.90
23471;DHT22;11908;50.806;4.424;2022-08-18T16:32:16;28.50;99.90
23471;DHT22;11908;50.806;4.424;2022-08-18T16:34:42;28.20;99.90
23471;DHT22;11908;50.806;4.424;2022-08-18T16:37:08;28.20;99.90
23471;DHT22;11908;50.806;4.424;2022-08-18T16:39:35;28.20;99.90
23471;DHT22;11908;50.806;4.424;2022-08-18T16:42:00;28.20;99.90
23471;DHT22;11908;50.806;4.424;2022-08-18T16:44:27;28.00;99.90
23471;DHT22;11908;50.806;4.424;2022-08-18T16:46:54;28.00;99.90
23471;DHT22;11908;50.806;4.424;2022-08-18T16:49:20;28.00;99.90
23471;DHT22;11908;50.806;4.424;2022-08-18T16:51:46;28.00;99.90
23471;DHT22;11908;50.806;4.424;2022-08-18T16:54:11;27.80;99.90
23471;DHT22;11908;50.806;4.424;2022-08-18T16:56:39;27.70;99.90
23471;DHT22;11908;50.806;4.424;2022-08-18T16:59:05;27.70;99.90
23471;DHT22;11908;50.806;4.424;2022-08-18T17:01:49;27.80;99.90
23471;DHT22;11908;50.806;4.424;2022-08-18T17:04:33;27.90;99.90
23471;DHT22;11908;50.806;4.424;2022-08-18T17:07:00;27.90;99.90
23471;DHT22;11908;50.806;4.424;2022-08-18T17:09:26;28.00;99.90
23471;DHT22;11908;50.806;4.424;2022-08-18T17:11:52;27.90;99.90
23471;DHT22;11908;50.806;4.424;2022-08-18T17:14:20;27.90;99.90
23471;DHT22;11908;50.806;4.424;2022-08-18T17:16:48;27.90;99.90
23471;DHT22;11908;50.806;4.424;2022-08-18T17:19:14;27.90;99.90
23471;DHT22;11908;50.806;4.424;2022-08-18T17:21:39;27.80;99.90
23471;DHT22;11908;50.806;4.424;2022-08-18T17:24:07;27.80;99.90
23471;DHT22;11908;50.806;4.424;2022-08-18T17:34:48;27.20;99.90
23471;DHT22;11908;50.806;4.424;2022-08-18T17:37:17;27.00;99.90
23471;DHT22;11908;50.806;4.424;2022-08-18T17:39:50;27.00;99.90
23471;DHT22;11908;50.806;4.424;2022-08-18T17:42:17;26.90;99.90
23471;DHT22;11908;50.806;4.424;2022-08-18T17:44:59;26.90;99.90
23471;DHT22;11908;50.806;4.424;2022-08-18T17:47:29;26.90;99.90
23471;DHT22;11908;50.806;4.424;2022-08-18T17:50:00;26.90;99.90
23471;DHT22;11908;50.806;4.424;2022-08-18T17:52:49;26.80;99.90
23471;DHT22;11908;50.806;4.424;2022-08-18T17:55:27;26.70;99.90
23471;DHT22;11908;50.806;4.424;2022-08-18T17:58:07;26.60;99.90
23471;DHT22;11908;50.806;4.424;2022-08-18T18:00:34;26.40;99.90
23471;DHT22;11908;50.806;4.424;2022-08-18T18:02:59;26.50;99.90
23471;DHT22;11908;50.806;4.424;2022-08-18T18:05:34;26.40;99.90
23471;DHT22;11908;50.806;4.424;2022-08-18T18:08:01;26.30;99.90
23471;DHT22;11908;50.806;4.424;2022-08-18T18:15:56;26.10;99.90
23471;DHT22;11908;50.806;4.424;2022-08-18T18:23:47;25.90;99.90
23471;DHT22;11908;50.806;4.424;2022-08-18T18:28:47;25.90;99.90
23471;DHT22;11908;50.806;4.424;2022-08-18T18:31:23;25.70;99.90
23471;DHT22;11908;50.806;4.424;2022-08-18T18:33:59;25.60;99.90
23471;DHT22;11908;50.806;4.424;2022-08-18T18:36:36;25.50;99.90
23471;DHT22;11908;50.806;4.424;2022-08-18T18:39:22;25.60;99.90
23471;DHT22;11908;50.806;4.424;2022-08-18T18:41:50;25.60;99.90
23471;DHT22;11908;50.806;4.424;2022-08-18T18:44:26;25.60;99.90